createdAt,value
2022-10-08T00:01:35.361Z,9.80
2022-10-08T00:04:03.530Z,8.33
2022-10-08T00:06:31.773Z,3.30
2022-10-08T00:09:05.605Z,5.30
2022-10-08T00:11:36.725Z,5.40
2022-10-08T00:14:03.934Z,6.20
2022-10-08T00:16:31.685Z,7.20
2022-10-08T00:19:01.866Z,23.93
2022-10-08T00:21:31.765Z,12.10
2022-10-08T00:23:59.077Z,5.60
2022-10-08T00:26:27.656Z,8.80
2022-10-08T00:28:57.266Z,7.60
2022-10-08T00:31:29.538Z,7.83
2022-10-08T00:33:57.557Z,7.00
2022-10-08T00:36:27.213Z,8.63
2022-10-08T00:38:57.839Z,5.20
2022-10-08T00:41:26.673Z,3.97
2022-10-08T00:43:55.746Z,9.17
2022-10-08T00:46:41.635Z,6.93
2022-10-08T00:49:11.645Z,6.93
2022-10-08T00:51:50.911Z,5.23
2022-10-08T00:54:19.345Z,8.10
2022-10-08T00:56:49.056Z,11.13
2022-10-08T00:59:16.931Z,3.27
2022-10-08T01:01:44.166Z,5.73
2022-10-08T01:04:12.185Z,4.87
2022-10-08T01:06:48.894Z,10.30
2022-10-08T01:09:19.715Z,4.80
2022-10-08T01:11:55.386Z,7.97
2022-10-08T01:14:39.495Z,6.23
2022-10-08T01:17:33.533Z,6.40
2022-10-08T01:20:39.327Z,6.23
2022-10-08T01:23:40.079Z,9.23
2022-10-08T01:26:15.953Z,12.63
2022-10-08T01:28:43.718Z,7.37
2022-10-08T01:31:21.486Z,13.77
2022-10-08T01:33:52.592Z,15.90
2022-10-08T01:36:21.426Z,9.73
2022-10-08T01:38:54.964Z,5.67
2022-10-08T01:41:25.107Z,4.43
2022-10-08T01:43:59.586Z,4.13
2022-10-08T01:46:28.627Z,12.73
2022-10-08T01:49:01.266Z,5.90
2022-10-08T01:51:32.626Z,13.20
2022-10-08T01:54:02.370Z,3.33
2022-10-08T01:56:29.945Z,4.60
2022-10-08T01:59:09.115Z,4.43
2022-10-08T02:01:41.705Z,8.03
2022-10-08T02:04:26.936Z,9.40
2022-10-08T02:06:58.195Z,8.03
2022-10-08T02:09:27.056Z,5.50
2022-10-08T02:11:54.246Z,6.20
2022-10-08T02:14:25.969Z,7.60
2022-10-08T02:17:05.836Z,4.43
2022-10-08T02:19:38.576Z,3.43
2022-10-08T02:22:06.685Z,8.70
2022-10-08T02:24:44.337Z,4.00
2022-10-08T02:27:12.842Z,7.03
2022-10-08T02:29:46.377Z,4.67
2022-10-08T02:32:46.612Z,8.20
2022-10-08T02:35:56.985Z,3.00
2022-10-08T02:38:29.965Z,3.70
2022-10-08T02:40:58.993Z,6.33
2022-10-08T02:43:29.502Z,3.90
2022-10-08T02:46:15.208Z,6.87
2022-10-08T02:48:45.845Z,19.73
2022-10-08T02:51:14.365Z,19.97
2022-10-08T02:53:41.564Z,6.00
2022-10-08T02:56:11.105Z,5.90
2022-10-08T02:58:38.035Z,5.90
2022-10-08T03:01:14.141Z,9.17
2022-10-08T03:03:44.846Z,5.50
2022-10-08T03:06:12.652Z,4.60
2022-10-08T03:08:43.698Z,11.23
2022-10-08T03:11:11.305Z,9.90
2022-10-08T03:13:40.615Z,8.53
2022-10-08T03:16:09.046Z,12.63
2022-10-08T03:18:37.825Z,11.17
2022-10-08T03:21:05.273Z,7.83
2022-10-08T03:23:31.966Z,10.07
2022-10-08T03:25:58.675Z,14.00
2022-10-08T03:28:25.355Z,6.13
2022-10-08T03:30:52.138Z,9.83
2022-10-08T03:33:19.365Z,6.47
2022-10-08T03:35:47.055Z,3.70
2022-10-08T03:38:18.057Z,7.30
2022-10-08T03:40:54.846Z,6.27
2022-10-08T03:43:22.303Z,5.70
2022-10-08T03:45:53.376Z,7.63
2022-10-08T03:48:21.825Z,5.13
2022-10-08T03:50:57.410Z,4.13
2022-10-08T03:53:25.313Z,6.90
2022-10-08T03:55:52.284Z,9.53
2022-10-08T03:58:19.597Z,4.67
2022-10-08T04:01:07.889Z,3.80
2022-10-08T04:03:34.726Z,2.97
2022-10-08T04:06:01.413Z,7.00
2022-10-08T04:08:28.547Z,5.83
2022-10-08T04:10:55.245Z,3.30
2022-10-08T04:13:22.461Z,6.63
2022-10-08T04:15:50.807Z,24.77
2022-10-08T04:18:18.303Z,9.97
2022-10-08T04:20:45.174Z,10.67
2022-10-08T04:23:11.734Z,14.87
2022-10-08T04:25:38.394Z,16.13
2022-10-08T04:28:06.052Z,13.27
2022-10-08T04:30:32.705Z,13.13
2022-10-08T04:32:59.330Z,13.80
2022-10-08T04:35:26.127Z,24.87
2022-10-08T04:37:52.704Z,20.90
2022-10-08T04:40:19.547Z,20.00
2022-10-08T04:42:51.018Z,19.70
2022-10-08T04:45:17.683Z,18.70
2022-10-08T04:47:44.340Z,38.40
2022-10-08T04:50:11.088Z,30.63
2022-10-08T04:52:37.627Z,34.13
2022-10-08T04:55:04.619Z,100.03
2022-10-08T04:57:31.817Z,11.63
2022-10-08T05:00:17.066Z,14.67
2022-10-08T05:02:45.953Z,44.73
2022-10-08T05:05:12.842Z,38.70
2022-10-08T05:07:39.360Z,56.77
2022-10-08T05:10:06.468Z,68.00
2022-10-08T05:12:33.211Z,53.13
2022-10-08T05:14:59.801Z,20.83
2022-10-08T05:17:26.465Z,13.67
2022-10-08T05:19:53.039Z,14.73
2022-10-08T05:22:19.642Z,15.50
2022-10-08T05:24:46.192Z,15.93
2022-10-08T05:27:12.752Z,14.90
2022-10-08T05:29:39.420Z,16.00
2022-10-08T05:32:06.090Z,31.87
2022-10-08T05:34:32.772Z,11.07
2022-10-08T05:36:59.362Z,18.50
2022-10-08T05:39:26.076Z,12.97
2022-10-08T05:41:53.391Z,17.17
2022-10-08T05:44:20.149Z,25.63
2022-10-08T05:46:46.811Z,29.17
2022-10-08T05:49:19.537Z,12.80
2022-10-08T05:51:47.092Z,24.40
2022-10-08T05:54:13.807Z,26.60
2022-10-08T05:56:40.370Z,13.17
2022-10-08T05:59:07.096Z,26.37
2022-10-08T06:01:34.937Z,62.50
2022-10-08T06:04:08.720Z,24.50
2022-10-08T06:06:37.471Z,111.67
2022-10-08T06:09:04.244Z,12.87
2022-10-08T06:11:33.742Z,11.00
2022-10-08T06:14:01.542Z,18.40
2022-10-08T06:16:29.287Z,69.30
2022-10-08T06:18:56.272Z,14.90
2022-10-08T06:21:24.750Z,74.97
2022-10-08T06:23:56.411Z,38.97
2022-10-08T06:26:27.348Z,38.67
2022-10-08T06:28:56.444Z,58.57
2022-10-08T06:31:23.319Z,68.73
2022-10-08T06:33:50.191Z,63.97
2022-10-08T06:36:23.641Z,21.90
2022-10-08T06:38:51.561Z,41.17
2022-10-08T06:41:18.391Z,98.50
2022-10-08T06:43:45.375Z,37.27
2022-10-08T06:46:12.200Z,22.47
2022-10-08T06:48:39.202Z,30.17
2022-10-08T06:51:08.511Z,53.63
2022-10-08T06:53:35.449Z,53.73
2022-10-08T06:56:04.542Z,96.40
2022-10-08T06:58:31.710Z,29.10
2022-10-08T07:01:05.638Z,77.23
2022-10-08T07:03:33.204Z,142.20
2022-10-08T07:06:07.805Z,63.80
2022-10-08T07:08:36.267Z,81.60
2022-10-08T07:11:10.549Z,46.87
2022-10-08T07:13:37.734Z,45.53
2022-10-08T07:16:20.566Z,51.03
2022-10-08T07:18:49.799Z,53.87
2022-10-08T07:21:18.451Z,51.00
2022-10-08T07:23:45.572Z,102.60
2022-10-08T07:26:14.844Z,55.00
2022-10-08T07:28:44.297Z,42.23
2022-10-08T07:31:16.234Z,79.83
2022-10-08T07:33:43.123Z,16.07
2022-10-08T07:36:11.192Z,29.97
2022-10-08T07:38:38.405Z,30.40
2022-10-08T07:41:05.938Z,35.30
2022-10-08T07:43:33.072Z,22.93
2022-10-08T07:45:59.798Z,28.03
2022-10-08T07:48:32.938Z,22.07
2022-10-08T07:51:08.611Z,21.47
2022-10-08T07:53:36.049Z,20.67
2022-10-08T07:56:03.636Z,19.17
2022-10-08T07:58:30.386Z,13.27
2022-10-08T08:00:58.141Z,11.73
2022-10-08T08:03:25.752Z,11.23
2022-10-08T08:05:54.156Z,12.80
2022-10-08T08:08:24.902Z,13.63
2022-10-08T08:11:02.201Z,8.37
2022-10-08T08:13:33.027Z,13.10
2022-10-08T08:16:10.986Z,8.00
2022-10-08T08:18:39.649Z,7.37
2022-10-08T08:21:14.647Z,6.03
2022-10-08T08:23:43.940Z,7.30
2022-10-08T08:26:13.129Z,15.90
2022-10-08T08:28:40.320Z,7.40
2022-10-08T08:31:11.900Z,15.03
2022-10-08T08:33:39.392Z,9.00
2022-10-08T08:36:06.671Z,21.67
2022-10-08T08:38:37.210Z,8.83
2022-10-08T08:41:32.550Z,8.47
2022-10-08T08:44:00.447Z,5.87
2022-10-08T08:46:29.623Z,14.27
2022-10-08T08:48:57.631Z,8.07
2022-10-08T08:51:24.512Z,6.80
2022-10-08T08:53:51.309Z,5.83
2022-10-08T08:56:20.089Z,8.43
2022-10-08T08:59:06.252Z,9.40
2022-10-08T09:01:36.575Z,5.13
2022-10-08T09:04:17.722Z,7.43
2022-10-08T09:06:44.532Z,8.70
2022-10-08T09:09:36.998Z,8.40
2022-10-08T09:12:20.565Z,8.20
2022-10-08T09:14:57.340Z,18.03
2022-10-08T09:17:32.846Z,9.30
2022-10-08T09:20:00.782Z,14.27
2022-10-08T09:22:30.249Z,12.30
2022-10-08T09:25:03.952Z,14.60
2022-10-08T09:27:46.543Z,7.77
2022-10-08T09:30:28.869Z,12.27
2022-10-08T09:32:58.589Z,8.23
2022-10-08T09:35:25.433Z,9.73
2022-10-08T09:37:52.398Z,10.60
2022-10-08T09:40:27.398Z,9.83
2022-10-08T09:43:12.234Z,16.80
2022-10-08T09:45:44.814Z,10.47
2022-10-08T09:48:13.008Z,19.43
2022-10-08T09:50:50.053Z,8.20
2022-10-08T09:53:17.030Z,10.67
2022-10-08T09:55:51.078Z,11.20
2022-10-08T09:58:19.221Z,18.40
2022-10-08T10:01:04.263Z,8.70
2022-10-08T10:03:31.995Z,11.67
2022-10-08T10:06:02.181Z,8.73
2022-10-08T10:08:49.842Z,12.57
2022-10-08T10:11:33.771Z,11.23
2022-10-08T10:14:06.660Z,13.30
2022-10-08T10:16:36.850Z,15.43
2022-10-08T10:19:17.474Z,12.13
2022-10-08T10:21:56.322Z,12.80
2022-10-08T10:24:50.747Z,17.67
2022-10-08T10:27:39.909Z,7.63
2022-10-08T10:30:23.212Z,6.77
2022-10-08T10:32:50.203Z,10.63
2022-10-08T10:35:31.209Z,11.33
2022-10-08T10:38:07.960Z,6.67
2022-10-08T10:40:47.928Z,8.30
2022-10-08T10:43:41.902Z,8.43
2022-10-08T10:46:22.664Z,10.20
2022-10-08T10:48:49.992Z,10.67
2022-10-08T10:51:44.761Z,13.83
2022-10-08T10:54:44.578Z,20.40
2022-10-08T10:57:44.100Z,14.47
2022-10-08T11:00:46.592Z,11.77
2022-10-08T11:03:16.771Z,19.13
2022-10-08T11:05:45.612Z,16.70
2022-10-08T11:08:41.391Z,13.10
2022-10-08T11:11:32.902Z,13.13
2022-10-08T11:14:13.541Z,15.10
2022-10-08T11:16:52.170Z,14.73
2022-10-08T11:19:57.621Z,13.73
2022-10-08T11:22:40.728Z,7.17
2022-10-08T11:25:28.710Z,7.07
2022-10-08T11:28:10.667Z,5.47
2022-10-08T11:31:06.006Z,8.40
2022-10-08T11:33:33.144Z,9.90
2022-10-08T11:36:15.801Z,21.37
2022-10-08T11:38:42.416Z,4.23
2022-10-08T11:41:34.791Z,3.60
2022-10-08T11:44:02.914Z,8.37
2022-10-08T11:46:32.241Z,6.40
2022-10-08T11:49:14.320Z,5.70
2022-10-08T11:51:42.769Z,8.43
2022-10-08T11:54:38.760Z,10.87
2022-10-08T11:57:25.680Z,8.73
2022-10-08T12:00:00.336Z,12.80
2022-10-08T12:02:35.729Z,20.13
2022-10-08T12:05:23.898Z,9.33
2022-10-08T12:07:55.952Z,4.90
2022-10-08T12:10:31.795Z,7.67
2022-10-08T12:13:16.769Z,10.13
2022-10-08T12:15:44.470Z,12.30
2022-10-08T12:18:11.202Z,6.10
2022-10-08T12:20:39.430Z,12.00
2022-10-08T12:23:22.280Z,15.57
2022-10-08T12:26:01.313Z,9.10
2022-10-08T12:28:32.439Z,19.17
2022-10-08T12:31:01.905Z,7.50
2022-10-08T12:33:29.195Z,13.33
2022-10-08T12:36:35.428Z,12.00
2022-10-08T12:39:11.140Z,18.90
2022-10-08T12:41:46.545Z,9.33
2022-10-08T12:44:35.669Z,15.73
2022-10-08T12:47:34.953Z,14.37
2022-10-08T12:50:39.940Z,13.43
2022-10-08T12:53:07.890Z,10.17
2022-10-08T12:55:42.048Z,16.07
2022-10-08T12:58:33.061Z,15.03
2022-10-08T13:01:02.049Z,11.43
2022-10-08T13:03:28.810Z,4.30
2022-10-08T13:05:56.642Z,3.77
2022-10-08T13:08:29.448Z,9.87
2022-10-08T13:10:56.741Z,29.97
2022-10-08T13:13:32.139Z,12.43
2022-10-08T13:16:03.265Z,6.87
2022-10-08T13:18:30.992Z,6.93
2022-10-08T13:21:08.062Z,5.97
2022-10-08T13:23:43.180Z,12.37
2022-10-08T13:26:44.790Z,6.60
2022-10-08T13:29:23.945Z,9.97
2022-10-08T13:32:01.280Z,9.57
2022-10-08T13:34:31.547Z,16.40
2022-10-08T13:37:00.700Z,15.60
2022-10-08T13:39:31.106Z,16.47
2022-10-08T13:42:00.431Z,3.40
2022-10-08T13:44:27.956Z,15.37
2022-10-08T13:46:57.151Z,14.27
2022-10-08T13:49:30.469Z,10.43
2022-10-08T13:51:58.821Z,8.67
2022-10-08T13:54:31.401Z,7.00
2022-10-08T13:56:58.610Z,7.50
2022-10-08T13:59:30.229Z,13.13
2022-10-08T14:01:57.589Z,11.87
2022-10-08T14:04:24.348Z,8.03
2022-10-08T14:06:53.624Z,5.60
2022-10-08T14:09:25.570Z,7.43
2022-10-08T14:11:56.970Z,13.10
2022-10-08T14:14:24.540Z,5.93
2022-10-08T14:16:51.571Z,11.13
2022-10-08T14:19:20.540Z,6.90
2022-10-08T14:21:51.850Z,3.97
2022-10-08T14:24:18.700Z,9.50
2022-10-08T14:26:45.404Z,7.40
2022-10-08T14:29:12.100Z,8.73
2022-10-08T14:31:38.817Z,10.10
2022-10-08T14:34:05.651Z,10.10
2022-10-08T14:36:35.679Z,8.10
2022-10-08T14:39:02.630Z,5.70
2022-10-08T14:41:29.920Z,8.17
2022-10-08T14:43:57.229Z,5.40
2022-10-08T14:46:23.981Z,8.13
2022-10-08T14:48:50.739Z,11.03
2022-10-08T14:51:17.467Z,5.87
2022-10-08T14:53:44.197Z,8.17
2022-10-08T14:56:12.885Z,18.30
2022-10-08T14:58:40.344Z,11.23
2022-10-08T15:01:08.398Z,8.93
2022-10-08T15:03:35.301Z,10.57
2022-10-08T15:06:02.041Z,8.90
2022-10-08T15:08:29.051Z,5.73
2022-10-08T15:10:55.720Z,10.80
2022-10-08T15:13:22.634Z,10.33
2022-10-08T15:15:49.399Z,10.30
2022-10-08T15:18:16.064Z,8.73
2022-10-08T15:20:43.142Z,11.03
2022-10-08T15:23:10.629Z,15.43
2022-10-08T15:25:37.533Z,8.10
2022-10-08T15:28:04.774Z,25.70
2022-10-08T15:30:31.710Z,30.30
2022-10-08T15:33:03.015Z,17.27
2022-10-08T15:35:29.691Z,8.50
2022-10-08T15:37:56.348Z,11.23
2022-10-08T15:40:23.021Z,10.20
2022-10-08T15:42:51.330Z,19.30
2022-10-08T15:45:18.029Z,26.17
2022-10-08T15:47:44.711Z,19.50
2022-10-08T15:50:11.379Z,17.47
2022-10-08T15:52:39.551Z,11.47
2022-10-08T15:55:09.071Z,16.80
2022-10-08T15:57:35.740Z,22.30
2022-10-08T16:00:02.525Z,12.53
2022-10-08T16:02:29.354Z,13.10
2022-10-08T16:04:56.060Z,17.20
2022-10-08T16:07:22.770Z,11.57
2022-10-08T16:09:49.692Z,11.40
2022-10-08T16:12:16.380Z,9.10
2022-10-08T16:14:43.070Z,6.67
2022-10-08T16:17:09.820Z,12.80
2022-10-08T16:19:36.624Z,17.63
2022-10-08T16:22:04.081Z,28.63
2022-10-08T16:24:30.729Z,23.17
2022-10-08T16:26:57.450Z,13.83
2022-10-08T16:29:24.080Z,13.10
2022-10-08T16:31:50.741Z,11.07
2022-10-08T16:34:20.370Z,10.73
2022-10-08T16:36:48.402Z,17.60
2022-10-08T16:39:18.281Z,13.50
2022-10-08T16:41:45.780Z,7.63
2022-10-08T16:44:14.983Z,13.27
2022-10-08T16:46:44.195Z,20.20
2022-10-08T16:49:24.104Z,12.63
2022-10-08T16:52:04.776Z,13.13
2022-10-08T16:54:31.731Z,12.43
2022-10-08T16:56:58.601Z,10.23
2022-10-08T16:59:27.628Z,16.60
2022-10-08T17:01:56.751Z,14.90
2022-10-08T17:04:25.091Z,15.90
2022-10-08T17:06:51.991Z,5.83
2022-10-08T17:09:18.920Z,20.23
2022-10-08T17:11:45.808Z,25.00
2022-10-08T17:14:12.506Z,21.10
2022-10-08T17:16:40.330Z,28.23
2022-10-08T17:19:07.043Z,6.37
2022-10-08T17:21:35.229Z,8.90
2022-10-08T17:24:02.909Z,15.80
2022-10-08T17:26:30.936Z,7.73
2022-10-08T17:28:58.170Z,6.50
2022-10-08T17:31:26.855Z,9.43
2022-10-08T17:33:53.640Z,7.87
2022-10-08T17:36:23.890Z,14.23
2022-10-08T17:38:52.824Z,11.73
2022-10-08T17:41:28.088Z,7.77
2022-10-08T17:43:56.036Z,21.90
2022-10-08T17:46:24.459Z,21.13
2022-10-08T17:48:51.449Z,13.47
2022-10-08T17:51:20.111Z,14.37
2022-10-08T17:53:53.177Z,9.07
2022-10-08T17:56:20.430Z,14.07
2022-10-08T17:58:47.911Z,8.03
2022-10-08T18:01:20.143Z,13.50
2022-10-08T18:03:55.390Z,10.43
2022-10-08T18:06:22.692Z,10.43
2022-10-08T18:08:49.611Z,15.53
2022-10-08T18:11:16.830Z,21.80
2022-10-08T18:13:43.470Z,12.17
2022-10-08T18:16:15.445Z,15.23
2022-10-08T18:18:43.600Z,18.20
2022-10-08T18:21:12.086Z,10.70
2022-10-08T18:23:41.875Z,12.30
2022-10-08T18:26:17.798Z,12.00
2022-10-08T18:28:45.698Z,13.63
2022-10-08T18:31:13.414Z,8.83
2022-10-08T18:33:41.872Z,53.57
2022-10-08T18:36:12.369Z,69.40
2022-10-08T18:38:39.702Z,17.17
2022-10-08T18:41:14.115Z,10.50
2022-10-08T18:43:41.206Z,14.50
2022-10-08T18:46:07.946Z,11.93
2022-10-08T18:48:35.300Z,11.83
2022-10-08T18:51:07.507Z,14.27
2022-10-08T18:53:36.370Z,10.97
2022-10-08T18:56:04.480Z,9.80
2022-10-08T18:58:31.155Z,11.60
2022-10-08T19:00:57.951Z,14.13
2022-10-08T19:03:25.011Z,14.93
2022-10-08T19:05:52.247Z,12.10
2022-10-08T19:08:19.064Z,8.80
2022-10-08T19:10:46.147Z,19.40
2022-10-08T19:13:13.302Z,16.90
2022-10-08T19:15:40.270Z,15.03
2022-10-08T19:18:08.008Z,14.23
2022-10-08T19:20:35.997Z,16.10
2022-10-08T19:23:03.089Z,14.33
2022-10-08T19:25:33.967Z,7.37
2022-10-08T19:28:00.579Z,9.13
2022-10-08T19:30:32.579Z,6.30
2022-10-08T19:32:59.444Z,8.73
2022-10-08T19:35:26.078Z,8.17
2022-10-08T19:37:52.694Z,9.77
2022-10-08T19:40:19.269Z,9.93
2022-10-08T19:42:46.770Z,10.77
2022-10-08T19:45:13.708Z,11.23
2022-10-08T19:47:40.330Z,13.97
2022-10-08T19:50:07.313Z,8.53
2022-10-08T19:52:33.915Z,10.93
2022-10-08T19:55:00.579Z,6.83
2022-10-08T19:57:27.315Z,8.27
2022-10-08T19:59:54.000Z,7.17
2022-10-08T20:02:20.721Z,6.33
2022-10-08T20:04:47.964Z,9.83
2022-10-08T20:07:14.620Z,10.80
2022-10-08T20:09:41.268Z,17.60
2022-10-08T20:12:07.944Z,11.07
2022-10-08T20:14:34.715Z,6.33
2022-10-08T20:17:01.293Z,8.63
2022-10-08T20:19:27.926Z,22.60
2022-10-08T20:21:58.030Z,7.27
2022-10-08T20:24:24.800Z,7.20
2022-10-08T20:26:51.592Z,6.80
2022-10-08T20:29:20.601Z,18.93
2022-10-08T20:31:50.171Z,9.13
2022-10-08T20:34:19.281Z,6.90
2022-10-08T20:36:49.833Z,5.67
2022-10-08T20:39:18.003Z,9.30
2022-10-08T20:41:44.929Z,12.03
2022-10-08T20:44:11.730Z,11.77
2022-10-08T20:46:39.719Z,3.87
2022-10-08T20:49:07.109Z,10.10
2022-10-08T20:51:34.497Z,6.80
2022-10-08T20:54:04.631Z,8.07
2022-10-08T20:56:37.153Z,7.40
2022-10-08T20:59:06.479Z,7.70
2022-10-08T21:01:35.527Z,6.93
2022-10-08T21:04:02.355Z,9.03
2022-10-08T21:06:31.050Z,6.63
2022-10-08T21:08:59.042Z,2.80
2022-10-08T21:11:27.773Z,9.90
2022-10-08T21:13:54.874Z,3.13
2022-10-08T21:16:27.682Z,8.10
2022-10-08T21:18:56.349Z,4.50
2022-10-08T21:21:23.401Z,10.10
2022-10-08T21:23:50.008Z,7.93
2022-10-08T21:26:25.215Z,6.80
2022-10-08T21:28:54.757Z,15.10
2022-10-08T21:31:22.091Z,10.17
2022-10-08T21:33:51.417Z,8.10
2022-10-08T21:36:44.766Z,7.83
2022-10-08T21:39:15.688Z,5.33
2022-10-08T21:41:42.340Z,8.23
2022-10-08T21:44:09.229Z,9.03
2022-10-08T21:46:40.901Z,6.77
2022-10-08T21:49:15.940Z,16.03
2022-10-08T21:51:43.040Z,10.67
2022-10-08T21:54:11.221Z,8.30
2022-10-08T21:56:40.407Z,6.53
2022-10-08T21:59:08.620Z,3.73
2022-10-08T22:01:38.077Z,3.67
2022-10-08T22:04:08.912Z,5.10
2022-10-08T22:06:38.337Z,4.43
2022-10-08T22:09:06.988Z,21.63
2022-10-08T22:11:34.267Z,12.00
2022-10-08T22:14:00.842Z,6.10
2022-10-08T22:16:29.638Z,4.63
2022-10-08T22:18:56.900Z,6.63
2022-10-08T22:21:24.068Z,9.00
2022-10-08T22:23:51.959Z,6.63
2022-10-08T22:26:20.991Z,4.07
2022-10-08T22:28:48.179Z,2.87
2022-10-08T22:31:16.615Z,5.90
2022-10-08T22:33:43.387Z,5.80
2022-10-08T22:36:27.529Z,11.13
2022-10-08T22:38:54.607Z,10.27
2022-10-08T22:41:27.000Z,6.83
2022-10-08T22:43:54.223Z,6.90
2022-10-08T22:46:29.887Z,9.53
2022-10-08T22:48:58.509Z,5.43
2022-10-08T22:51:25.268Z,17.23
2022-10-08T22:53:52.040Z,5.20
2022-10-08T22:56:21.106Z,3.67
2022-10-08T22:58:48.728Z,9.53
2022-10-08T23:01:21.136Z,8.10
2022-10-08T23:03:48.705Z,8.53
2022-10-08T23:06:15.480Z,12.33
2022-10-08T23:08:43.204Z,12.23
2022-10-08T23:11:10.420Z,10.93
2022-10-08T23:13:37.074Z,11.47
2022-10-08T23:16:09.421Z,5.33
2022-10-08T23:18:38.585Z,11.03
2022-10-08T23:21:10.730Z,5.97
2022-10-08T23:23:37.670Z,10.77
2022-10-08T23:26:06.024Z,8.50
2022-10-08T23:28:34.735Z,7.67
2022-10-08T23:31:15.879Z,6.53
2022-10-08T23:33:44.248Z,6.20
2022-10-08T23:36:16.580Z,13.80
2022-10-08T23:38:43.284Z,7.27
2022-10-08T23:41:11.981Z,10.63
2022-10-08T23:43:49.236Z,8.00
2022-10-08T23:46:21.263Z,13.10
2022-10-08T23:48:49.091Z,11.70
2022-10-08T23:51:16.745Z,14.03
2022-10-08T23:53:43.448Z,9.73
2022-10-08T23:56:10.336Z,13.50
2022-10-08T23:58:37.330Z,18.80
